Terminal Aerodrome Forecast
Issued by NWS Goodland, KS

Home | Current Version | Previous Version | Text Only | Print | Product List | Glossary On
Versions: 1 2 3 4 5 6 7 8 9 10 11 12 13 14
000
FTUS43 KGLD 191126
TAFGLD
TAF
KGLD 191126Z 1912/2012 22010G16KT P6SM SKC
     FM191600 21018G28KT P6SM FEW050
     FM200000 19010G16KT P6SM SKC
     FM200600 24006KT P6SM FEW200=

USA.gov is the U.S. government's official web portal to all federal, state and local government web resources and services.